sensor_id;sensor_type;location;lat;lon;timestamp;pressure;altitude;pressure_sealevel;temperature;humidity
37486;BME280;23341;50.296;18.960;2023-02-16T00:03:44;43786.38;;;-144.43;100.00
37486;BME280;23341;50.296;18.960;2023-02-16T00:08:50;43802.34;;;-144.43;100.00
37486;BME280;23341;50.296;18.960;2023-02-16T00:13:54;43692.56;;;-144.43;100.00
37486;BME280;23341;50.296;18.960;2023-02-16T00:18:59;43738.47;;;-144.43;100.00
37486;BME280;23341;50.296;18.960;2023-02-16T00:24:03;43714.53;;;-144.43;100.00
37486;BME280;23341;50.296;18.960;2023-02-16T00:29:18;43686.59;;;-144.43;100.00
37486;BME280;23341;50.296;18.960;2023-02-16T00:34:32;43752.44;;;-144.43;100.00
37486;BME280;23341;50.296;18.960;2023-02-16T00:39:37;43754.44;;;-144.43;100.00
37486;BME280;23341;50.296;18.960;2023-02-16T00:44:43;43758.44;;;-144.43;100.00
37486;BME280;23341;50.296;18.960;2023-02-16T00:49:50;43764.41;;;-144.43;100.00
37486;BME280;23341;50.296;18.960;2023-02-16T00:54:54;43744.47;;;-144.43;100.00
37486;BME280;23341;50.296;18.960;2023-02-16T01:00:01;43748.47;;;-144.43;100.00
37486;BME280;23341;50.296;18.960;2023-02-16T01:05:09;43786.38;;;-144.43;100.00
37486;BME280;23341;50.296;18.960;2023-02-16T01:10:12;43746.47;;;-144.43;100.00
37486;BME280;23341;50.296;18.960;2023-02-16T01:15:34;43818.31;;;-144.43;100.00
37486;BME280;23341;50.296;18.960;2023-02-16T01:20:40;43786.38;;;-144.43;100.00
37486;BME280;23341;50.296;18.960;2023-02-16T01:25:44;43806.34;;;-144.43;100.00
37486;BME280;23341;50.296;18.960;2023-02-16T01:30:51;43774.41;;;-144.43;100.00
37486;BME280;23341;50.296;18.960;2023-02-16T01:35:57;43790.38;;;-144.43;100.00
37486;BME280;23341;50.296;18.960;2023-02-16T01:41:06;43784.38;;;-144.43;100.00
37486;BME280;23341;50.296;18.960;2023-02-16T01:46:28;43790.38;;;-144.43;100.00
37486;BME280;23341;50.296;18.960;2023-02-16T01:51:45;43804.34;;;-144.43;100.00
37486;BME280;23341;50.296;18.960;2023-02-16T01:56:53;43768.41;;;-144.43;100.00
37486;BME280;23341;50.296;18.960;2023-02-16T02:02:11;43698.56;;;-144.43;100.00
37486;BME280;23341;50.296;18.960;2023-02-16T02:07:24;43678.59;;;-144.43;100.00
37486;BME280;23341;50.296;18.960;2023-02-16T02:12:34;43708.53;;;-144.43;100.00
37486;BME280;23341;50.296;18.960;2023-02-16T02:17:39;43694.56;;;-144.43;100.00
37486;BME280;23341;50.296;18.960;2023-02-16T02:23:13;43666.63;;;-144.43;100.00
37486;BME280;23341;50.296;18.960;2023-02-16T02:28:45;43674.63;;;-144.43;100.00
37486;BME280;23341;50.296;18.960;2023-02-16T02:33:55;43658.66;;;-144.43;100.00
37486;BME280;23341;50.296;18.960;2023-02-16T02:39:10;43674.63;;;-144.43;100.00
37486;BME280;23341;50.296;18.960;2023-02-16T02:44:23;43684.59;;;-144.43;100.00
37486;BME280;23341;50.296;18.960;2023-02-16T02:49:29;43716.53;;;-144.43;100.00
37486;BME280;23341;50.296;18.960;2023-02-16T02:54:36;43748.47;;;-144.43;100.00
37486;BME280;23341;50.296;18.960;2023-02-16T03:00:05;43774.41;;;-144.43;100.00
37486;BME280;23341;50.296;18.960;2023-02-16T03:06:02;43764.41;;;-144.43;100.00
37486;BME280;23341;50.296;18.960;2023-02-16T03:11:10;43814.31;;;-144.43;100.00
37486;BME280;23341;50.296;18.960;2023-02-16T03:16:32;43834.28;;;-144.43;100.00
37486;BME280;23341;50.296;18.960;2023-02-16T03:21:37;43812.31;;;-144.43;100.00
37486;BME280;23341;50.296;18.960;2023-02-16T03:27:00;43746.47;;;-144.43;100.00
37486;BME280;23341;50.296;18.960;2023-02-16T03:32:24;43780.38;;;-144.43;100.00
37486;BME280;23341;50.296;18.960;2023-02-16T03:37:28;43780.38;;;-144.43;100.00
37486;BME280;23341;50.296;18.960;2023-02-16T03:42:32;43740.47;;;-144.43;100.00
37486;BME280;23341;50.296;18.960;2023-02-16T03:47:37;43692.56;;;-144.43;100.00
37486;BME280;23341;50.296;18.960;2023-02-16T03:52:41;43644.69;;;-144.43;100.00
37486;BME280;23341;50.296;18.960;2023-02-16T03:57:44;43584.81;;;-144.43;100.00
37486;BME280;23341;50.296;18.960;2023-02-16T04:02:49;43662.63;;;-144.43;100.00
37486;BME280;23341;50.296;18.960;2023-02-16T04:07:53;43598.78;;;-144.43;100.00
37486;BME280;23341;50.296;18.960;2023-02-16T04:12:57;43550.88;;;-144.43;100.00
37486;BME280;23341;50.296;18.960;2023-02-16T04:18:03;43550.88;;;-144.43;100.00
37486;BME280;23341;50.296;18.960;2023-02-16T04:23:07;43439.13;;;-144.43;100.00
37486;BME280;23341;50.296;18.960;2023-02-16T04:28:10;43399.22;;;-144.43;100.00
37486;BME280;23341;50.296;18.960;2023-02-16T04:33:15;43375.25;;;-144.43;100.00
37486;BME280;23341;50.296;18.960;2023-02-16T04:38:19;43367.28;;;-144.43;100.00
37486;BME280;23341;50.296;18.960;2023-02-16T04:43:23;43437.13;;;-144.43;100.00
37486;BME280;23341;50.296;18.960;2023-02-16T04:48:28;43397.22;;;-144.43;100.00
37486;BME280;23341;50.296;18.960;2023-02-16T04:53:31;43381.25;;;-144.43;100.00
37486;BME280;23341;50.296;18.960;2023-02-16T04:58:35;43319.38;;;-144.43;100.00
37486;BME280;23341;50.296;18.960;2023-02-16T05:03:40;43301.41;;;-144.43;100.00
37486;BME280;23341;50.296;18.960;2023-02-16T05:08:44;43293.44;;;-144.43;100.00
37486;BME280;23341;50.296;18.960;2023-02-16T05:13:48;43297.44;;;-144.43;100.00
37486;BME280;23341;50.296;18.960;2023-02-16T05:19:11;43279.47;;;-144.43;100.00
37486;BME280;23341;50.296;18.960;2023-02-16T05:24:15;43289.44;;;-144.43;100.00
37486;BME280;23341;50.296;18.960;2023-02-16T05:29:18;43273.47;;;-144.43;100.00
37486;BME280;23341;50.296;18.960;2023-02-16T05:34:24;43223.59;;;-144.43;100.00
37486;BME280;23341;50.296;18.960;2023-02-16T05:39:28;43127.81;;;-144.43;100.00
37486;BME280;23341;50.296;18.960;2023-02-16T05:44:31;43161.75;;;-144.43;100.00
37486;BME280;23341;50.296;18.960;2023-02-16T05:49:37;43129.81;;;-144.43;100.00
37486;BME280;23341;50.296;18.960;2023-02-16T05:54:41;43271.50;;;-144.43;100.00
37486;BME280;23341;50.296;18.960;2023-02-16T05:59:45;43371.28;;;-144.43;100.00
37486;BME280;23341;50.296;18.960;2023-02-16T06:04:50;43536.91;;;-144.43;100.00
37486;BME280;23341;50.296;18.960;2023-02-16T06:09:53;43664.63;;;-144.43;100.00
37486;BME280;23341;50.296;18.960;2023-02-16T06:14:57;43654.66;;;-144.43;100.00
37486;BME280;23341;50.296;18.960;2023-02-16T06:20:03;43778.41;;;-144.43;100.00
37486;BME280;23341;50.296;18.960;2023-02-16T06:25:07;43834.28;;;-144.43;100.00
37486;BME280;23341;50.296;18.960;2023-02-16T06:30:12;43752.44;;;-144.43;100.00
37486;BME280;23341;50.296;18.960;2023-02-16T06:35:17;43802.34;;;-144.43;100.00
37486;BME280;23341;50.296;18.960;2023-02-16T06:40:21;43858.22;;;-144.43;100.00
37486;BME280;23341;50.296;18.960;2023-02-16T06:45:24;43890.16;;;-144.43;100.00
37486;BME280;23341;50.296;18.960;2023-02-16T06:50:30;43834.28;;;-144.43;100.00
37486;BME280;23341;50.296;18.960;2023-02-16T06:55:33;43975.97;;;-144.43;100.00
37486;BME280;23341;50.296;18.960;2023-02-16T07:00:38;43983.97;;;-144.43;100.00
37486;BME280;23341;50.296;18.960;2023-02-16T07:05:43;44009.91;;;-144.43;100.00
37486;BME280;23341;50.296;18.960;2023-02-16T07:10:47;44053.81;;;-144.43;100.00
37486;BME280;23341;50.296;18.960;2023-02-16T07:15:51;44105.72;;;-144.43;100.00
37486;BME280;23341;50.296;18.960;2023-02-16T07:20:57;44191.53;;;-144.43;100.00
37486;BME280;23341;50.296;18.960;2023-02-16T07:26:00;44229.47;;;-144.43;100.00
37486;BME280;23341;50.296;18.960;2023-02-16T07:31:06;44329.28;;;-144.43;100.00
37486;BME280;23341;50.296;18.960;2023-02-16T07:36:12;44419.09;;;-144.43;100.00
37486;BME280;23341;50.296;18.960;2023-02-16T07:41:16;44353.22;;;-144.43;100.00
37486;BME280;23341;50.296;18.960;2023-02-16T07:46:20;44498.94;;;-144.43;100.00
37486;BME280;23341;50.296;18.960;2023-02-16T07:51:27;44411.13;;;-144.43;100.00
37486;BME280;23341;50.296;18.960;2023-02-16T07:56:33;44439.06;;;-144.43;100.00
37486;BME280;23341;50.296;18.960;2023-02-16T08:01:37;44524.91;;;-144.43;100.00
37486;BME280;23341;50.296;18.960;2023-02-16T08:06:42;44638.69;;;-144.43;100.00
37486;BME280;23341;50.296;18.960;2023-02-16T08:11:47;44720.53;;;-144.43;100.00
37486;BME280;23341;50.296;18.960;2023-02-16T08:16:51;44710.53;;;-144.43;100.00
37486;BME280;23341;50.296;18.960;2023-02-16T08:21:59;44602.75;;;-144.43;100.00
37486;BME280;23341;50.296;18.960;2023-02-16T08:27:05;44578.78;;;-144.43;100.00
37486;BME280;23341;50.296;18.960;2023-02-16T08:32:10;44782.41;;;-144.43;98.46
37486;BME280;23341;50.296;18.960;2023-02-16T08:37:15;44774.44;;;-144.43;100.00
37486;BME280;23341;50.296;18.960;2023-02-16T08:42:19;44812.34;;;-144.43;97.58
37486;BME280;23341;50.296;18.960;2023-02-16T08:47:23;44830.31;;;-144.43;97.47
37486;BME280;23341;50.296;18.960;2023-02-16T08:52:28;44876.25;;;-144.43;96.71
37486;BME280;23341;50.296;18.960;2023-02-16T08:57:32;44854.28;;;-144.43;97.19
37486;BME280;23341;50.296;18.960;2023-02-16T09:02:37;44872.25;;;-144.43;97.15
37486;BME280;23341;50.296;18.960;2023-02-16T09:07:42;44894.22;;;-144.43;95.44
37486;BME280;23341;50.296;18.960;2023-02-16T09:12:46;44936.13;;;-144.43;95.39
37486;BME280;23341;50.296;18.960;2023-02-16T09:17:51;44968.06;;;-144.43;93.78
37486;BME280;23341;50.296;18.960;2023-02-16T09:22:56;45008.00;;;-144.43;94.84
37486;BME280;23341;50.296;18.960;2023-02-16T09:28:00;44980.06;;;-144.43;94.56
37486;BME280;23341;50.296;18.960;2023-02-16T09:33:04;45039.94;;;-144.43;92.79
37486;BME280;23341;50.296;18.960;2023-02-16T09:38:10;45049.94;;;-144.43;91.71
37486;BME280;23341;50.296;18.960;2023-02-16T09:43:28;45075.88;;;-144.43;90.43
37486;BME280;23341;50.296;18.960;2023-02-16T09:48:40;45081.88;;;-144.43;89.61
37486;BME280;23341;50.296;18.960;2023-02-16T09:53:49;45129.78;;;-144.43;88.11
37486;BME280;23341;50.296;18.960;2023-02-16T09:59:01;45157.75;;;-144.43;84.85
37486;BME280;23341;50.296;18.960;2023-02-16T10:04:22;45217.63;;;-144.43;85.01
37486;BME280;23341;50.296;18.960;2023-02-16T10:09:34;45231.59;;;-144.43;86.33
37486;BME280;23341;50.296;18.960;2023-02-16T10:14:41;45237.59;;;-144.43;86.05
37486;BME280;23341;50.296;18.960;2023-02-16T10:19:48;45207.66;;;-144.43;88.03
37486;BME280;23341;50.296;18.960;2023-02-16T10:24:59;45211.66;;;-144.43;86.63
37486;BME280;23341;50.296;18.960;2023-02-16T10:30:13;45245.59;;;-144.43;84.66
37486;BME280;23341;50.296;18.960;2023-02-16T10:35:22;45281.53;;;-144.43;81.42
37486;BME280;23341;50.296;18.960;2023-02-16T10:40:34;45349.41;;;-144.43;80.43
37486;BME280;23341;50.296;18.960;2023-02-16T10:45:46;45375.38;;;-144.43;80.42
37486;BME280;23341;50.296;18.960;2023-02-16T10:51:01;45409.31;;;-144.43;80.96
37486;BME280;23341;50.296;18.960;2023-02-16T10:56:22;45393.34;;;-144.43;80.49
37486;BME280;23341;50.296;18.960;2023-02-16T11:01:35;45393.34;;;-144.43;80.51
37486;BME280;23341;50.296;18.960;2023-02-16T11:06:39;45371.38;;;-144.43;79.05
37486;BME280;23341;50.296;18.960;2023-02-16T11:11:45;45469.22;;;-144.43;76.42
37486;BME280;23341;50.296;18.960;2023-02-16T11:17:02;45487.19;;;-144.43;77.17
37486;BME280;23341;50.296;18.960;2023-02-16T11:22:10;45561.06;;;-144.43;77.72
37486;BME280;23341;50.296;18.960;2023-02-16T11:27:29;45573.03;;;-144.43;79.42
37486;BME280;23341;50.296;18.960;2023-02-16T11:32:33;45543.09;;;-144.43;77.56
37486;BME280;23341;50.296;18.960;2023-02-16T11:37:39;45583.00;;;-144.43;77.27
37486;BME280;23341;50.296;18.960;2023-02-16T11:42:46;45618.97;;;-144.43;67.81
37486;BME280;23341;50.296;18.960;2023-02-16T11:47:52;45690.84;;;-144.43;61.94
37486;BME280;23341;50.296;18.960;2023-02-16T11:53:12;45754.75;;;-144.43;62.60
37486;BME280;23341;50.296;18.960;2023-02-16T11:58:20;45756.72;;;-144.43;62.35
37486;BME280;23341;50.296;18.960;2023-02-16T12:03:47;45742.75;;;-144.43;64.41
37486;BME280;23341;50.296;18.960;2023-02-16T12:09:07;45758.72;;;-144.43;63.37
37486;BME280;23341;50.296;18.960;2023-02-16T12:14:35;45804.66;;;-144.43;61.64
37486;BME280;23341;50.296;18.960;2023-02-16T12:19:44;45850.59;;;-144.43;64.53
37486;BME280;23341;50.296;18.960;2023-02-16T12:24:58;45798.66;;;-144.43;65.82
37486;BME280;23341;50.296;18.960;2023-02-16T12:30:20;45766.72;;;-144.43;62.89
37486;BME280;23341;50.296;18.960;2023-02-16T12:35:42;45806.66;;;-144.43;64.62
37486;BME280;23341;50.296;18.960;2023-02-16T12:40:55;45820.63;;;-144.43;64.82
37486;BME280;23341;50.296;18.960;2023-02-16T12:46:05;45844.59;;;-144.43;62.85
37486;BME280;23341;50.296;18.960;2023-02-16T12:51:17;45854.59;;;-144.43;63.90
37486;BME280;23341;50.296;18.960;2023-02-16T12:56:23;45818.63;;;-144.43;63.39
37486;BME280;23341;50.296;18.960;2023-02-16T13:01:33;45922.47;;;-144.43;64.43
37486;BME280;23341;50.296;18.960;2023-02-16T13:06:42;45894.53;;;-144.43;64.63
37486;BME280;23341;50.296;18.960;2023-02-16T13:11:51;45870.56;;;-144.43;67.16
37486;BME280;23341;50.296;18.960;2023-02-16T13:16:59;45854.59;;;-144.43;66.15
37486;BME280;23341;50.296;18.960;2023-02-16T13:22:26;45894.53;;;-144.43;63.45
37486;BME280;23341;50.296;18.960;2023-02-16T13:27:37;45934.47;;;-144.43;62.43
37486;BME280;23341;50.296;18.960;2023-02-16T13:39:04;46000.34;;;-144.43;64.78
37486;BME280;23341;50.296;18.960;2023-02-16T13:44:14;46034.31;;;-144.43;66.64
37486;BME280;23341;50.296;18.960;2023-02-16T13:49:30;45976.38;;;-144.43;67.67
37486;BME280;23341;50.296;18.960;2023-02-16T13:54:38;45982.38;;;-144.43;68.20
37486;BME280;23341;50.296;18.960;2023-02-16T13:59:48;45988.38;;;-144.43;68.68
37486;BME280;23341;50.296;18.960;2023-02-16T14:05:02;45934.47;;;-144.43;69.71
37486;BME280;23341;50.296;18.960;2023-02-16T14:10:12;45946.44;;;-144.43;69.88
37486;BME280;23341;50.296;18.960;2023-02-16T14:15:17;45918.47;;;-144.43;70.67
37486;BME280;23341;50.296;18.960;2023-02-16T14:20:25;45928.47;;;-144.43;70.78
37486;BME280;23341;50.296;18.960;2023-02-16T14:25:35;45904.50;;;-144.43;72.50
37486;BME280;23341;50.296;18.960;2023-02-16T14:30:52;45900.50;;;-144.43;71.61
37486;BME280;23341;50.296;18.960;2023-02-16T14:36:06;45876.53;;;-144.43;72.26
37486;BME280;23341;50.296;18.960;2023-02-16T14:41:25;45880.53;;;-144.43;72.52
37486;BME280;23341;50.296;18.960;2023-02-16T14:46:41;45856.56;;;-144.43;72.14
37486;BME280;23341;50.296;18.960;2023-02-16T14:57:11;45856.56;;;-144.43;71.69
37486;BME280;23341;50.296;18.960;2023-02-16T15:02:26;45852.59;;;-144.43;72.02
37486;BME280;23341;50.296;18.960;2023-02-16T15:07:30;45856.56;;;-144.43;73.03
37486;BME280;23341;50.296;18.960;2023-02-16T15:12:38;45836.59;;;-144.43;74.42
37486;BME280;23341;50.296;18.960;2023-02-16T15:17:44;45812.66;;;-144.43;75.23
37486;BME280;23341;50.296;18.960;2023-02-16T15:22:55;45752.75;;;-144.43;75.56
37486;BME280;23341;50.296;18.960;2023-02-16T15:28:02;45762.72;;;-144.43;76.09
37486;BME280;23341;50.296;18.960;2023-02-16T15:33:13;45714.81;;;-144.43;76.58
37486;BME280;23341;50.296;18.960;2023-02-16T15:38:29;45702.81;;;-144.43;77.43
37486;BME280;23341;50.296;18.960;2023-02-16T15:43:36;45654.91;;;-144.43;78.25
37486;BME280;23341;50.296;18.960;2023-02-16T15:48:41;45628.94;;;-144.43;79.19
37486;BME280;23341;50.296;18.960;2023-02-16T15:53:48;45573.03;;;-144.43;81.77
37486;BME280;23341;50.296;18.960;2023-02-16T15:58:57;45519.13;;;-144.43;83.10
37486;BME280;23341;50.296;18.960;2023-02-16T16:04:05;45457.22;;;-144.43;83.96
37486;BME280;23341;50.296;18.960;2023-02-16T16:09:19;45423.28;;;-144.43;85.34
37486;BME280;23341;50.296;18.960;2023-02-16T16:14:26;45371.38;;;-144.43;86.42
37486;BME280;23341;50.296;18.960;2023-02-16T16:19:32;45291.50;;;-144.43;88.39
37486;BME280;23341;50.296;18.960;2023-02-16T16:24:38;45191.69;;;-144.43;89.04
37486;BME280;23341;50.296;18.960;2023-02-16T16:29:45;45169.72;;;-144.43;89.77
37486;BME280;23341;50.296;18.960;2023-02-16T16:34:49;45127.78;;;-144.43;90.67
37486;BME280;23341;50.296;18.960;2023-02-16T16:40:00;45133.78;;;-144.43;91.30
37486;BME280;23341;50.296;18.960;2023-02-16T16:45:33;45051.94;;;-144.43;93.21
37486;BME280;23341;50.296;18.960;2023-02-16T16:50:38;44968.06;;;-144.43;93.90
37486;BME280;23341;50.296;18.960;2023-02-16T16:55:43;44962.09;;;-144.43;92.59
37486;BME280;23341;50.296;18.960;2023-02-16T17:00:48;44966.06;;;-144.43;93.65
37486;BME280;23341;50.296;18.960;2023-02-16T17:05:52;44896.19;;;-144.43;94.89
37486;BME280;23341;50.296;18.960;2023-02-16T17:10:56;44876.25;;;-144.43;94.10
37486;BME280;23341;50.296;18.960;2023-02-16T17:16:03;44894.22;;;-144.43;94.99
37486;BME280;23341;50.296;18.960;2023-02-16T17:21:10;44832.31;;;-144.43;96.35
37486;BME280;23341;50.296;18.960;2023-02-16T17:26:14;44784.41;;;-144.43;97.78
37486;BME280;23341;50.296;18.960;2023-02-16T17:31:20;44742.50;;;-144.43;97.78
37486;BME280;23341;50.296;18.960;2023-02-16T17:36:25;44700.56;;;-144.43;98.93
37486;BME280;23341;50.296;18.960;2023-02-16T17:41:29;44702.56;;;-144.43;98.83
37486;BME280;23341;50.296;18.960;2023-02-16T17:46:35;44616.72;;;-144.43;100.00
37486;BME280;23341;50.296;18.960;2023-02-16T17:51:38;44650.66;;;-144.43;99.93
37486;BME280;23341;50.296;18.960;2023-02-16T17:56:44;44612.72;;;-144.43;100.00
37486;BME280;23341;50.296;18.960;2023-02-16T18:01:49;44632.69;;;-144.43;100.00
37486;BME280;23341;50.296;18.960;2023-02-16T18:06:53;44656.66;;;-144.43;100.00
37486;BME280;23341;50.296;18.960;2023-02-16T18:11:57;44660.63;;;-144.43;99.22
37486;BME280;23341;50.296;18.960;2023-02-16T18:17:03;44652.66;;;-144.43;98.69
37486;BME280;23341;50.296;18.960;2023-02-16T18:22:08;44640.69;;;-144.43;99.53
37486;BME280;23341;50.296;18.960;2023-02-16T18:27:14;44616.72;;;-144.43;99.71
37486;BME280;23341;50.296;18.960;2023-02-16T18:32:20;44596.75;;;-144.43;99.54
37486;BME280;23341;50.296;18.960;2023-02-16T18:37:24;44592.75;;;-144.43;100.00
37486;BME280;23341;50.296;18.960;2023-02-16T18:42:28;44588.78;;;-144.43;100.00
37486;BME280;23341;50.296;18.960;2023-02-16T18:47:33;44544.84;;;-144.43;100.00
37486;BME280;23341;50.296;18.960;2023-02-16T18:52:37;44506.94;;;-144.43;100.00
37486;BME280;23341;50.296;18.960;2023-02-16T18:57:43;44546.84;;;-144.43;100.00
37486;BME280;23341;50.296;18.960;2023-02-16T19:02:48;44498.94;;;-144.43;100.00
37486;BME280;23341;50.296;18.960;2023-02-16T19:07:52;44455.03;;;-144.43;100.00
37486;BME280;23341;50.296;18.960;2023-02-16T19:12:56;44490.97;;;-144.43;100.00
37486;BME280;23341;50.296;18.960;2023-02-16T19:18:04;44504.94;;;-144.43;100.00
37486;BME280;23341;50.296;18.960;2023-02-16T19:23:08;44453.03;;;-144.43;100.00
37486;BME280;23341;50.296;18.960;2023-02-16T19:28:12;44419.09;;;-144.43;100.00
37486;BME280;23341;50.296;18.960;2023-02-16T19:33:18;44477.00;;;-144.43;100.00
37486;BME280;23341;50.296;18.960;2023-02-16T19:38:21;44492.97;;;-144.43;100.00
37486;BME280;23341;50.296;18.960;2023-02-16T19:43:25;44449.03;;;-144.43;100.00
37486;BME280;23341;50.296;18.960;2023-02-16T19:48:31;44397.16;;;-144.43;100.00
37486;BME280;23341;50.296;18.960;2023-02-16T19:53:36;44447.03;;;-144.43;100.00
37486;BME280;23341;50.296;18.960;2023-02-16T19:58:40;44419.09;;;-144.43;100.00
37486;BME280;23341;50.296;18.960;2023-02-16T20:03:46;44401.13;;;-144.43;100.00
37486;BME280;23341;50.296;18.960;2023-02-16T20:08:53;44403.13;;;-144.43;100.00
37486;BME280;23341;50.296;18.960;2023-02-16T20:13:57;44401.13;;;-144.43;100.00
37486;BME280;23341;50.296;18.960;2023-02-16T20:19:02;44355.22;;;-144.43;100.00
37486;BME280;23341;50.296;18.960;2023-02-16T20:24:06;44353.22;;;-144.43;100.00
37486;BME280;23341;50.296;18.960;2023-02-16T20:29:12;44385.16;;;-144.43;100.00
37486;BME280;23341;50.296;18.960;2023-02-16T20:34:19;44405.13;;;-144.43;100.00
37486;BME280;23341;50.296;18.960;2023-02-16T20:39:23;44355.22;;;-144.43;100.00
37486;BME280;23341;50.296;18.960;2023-02-16T20:44:27;44341.25;;;-144.43;100.00
37486;BME280;23341;50.296;18.960;2023-02-16T20:49:32;44349.22;;;-144.43;100.00
37486;BME280;23341;50.296;18.960;2023-02-16T20:54:36;44305.31;;;-144.43;100.00
37486;BME280;23341;50.296;18.960;2023-02-16T20:59:40;44313.31;;;-144.43;100.00
37486;BME280;23341;50.296;18.960;2023-02-16T21:04:46;44311.31;;;-144.43;100.00
37486;BME280;23341;50.296;18.960;2023-02-16T21:09:50;44327.28;;;-144.43;100.00
37486;BME280;23341;50.296;18.960;2023-02-16T21:14:54;44269.41;;;-144.43;100.00
37486;BME280;23341;50.296;18.960;2023-02-16T21:19:59;44305.31;;;-144.43;100.00
37486;BME280;23341;50.296;18.960;2023-02-16T21:25:03;44261.41;;;-144.43;100.00
37486;BME280;23341;50.296;18.960;2023-02-16T21:30:08;44185.56;;;-144.43;100.00
37486;BME280;23341;50.296;18.960;2023-02-16T21:35:13;44175.56;;;-144.43;100.00
37486;BME280;23341;50.296;18.960;2023-02-16T21:40:17;44189.56;;;-144.43;100.00
37486;BME280;23341;50.296;18.960;2023-02-16T21:45:39;44159.59;;;-144.43;100.00
37486;BME280;23341;50.296;18.960;2023-02-16T21:50:44;44187.56;;;-144.43;100.00
37486;BME280;23341;50.296;18.960;2023-02-16T21:55:48;44127.69;;;-144.43;100.00
37486;BME280;23341;50.296;18.960;2023-02-16T22:01:09;44167.59;;;-144.43;100.00
37486;BME280;23341;50.296;18.960;2023-02-16T22:06:14;44099.72;;;-144.43;100.00
37486;BME280;23341;50.296;18.960;2023-02-16T22:11:18;44085.75;;;-144.43;100.00
37486;BME280;23341;50.296;18.960;2023-02-16T22:16:23;44095.75;;;-144.43;100.00
37486;BME280;23341;50.296;18.960;2023-02-16T22:21:29;44089.75;;;-144.43;100.00
37486;BME280;23341;50.296;18.960;2023-02-16T22:26:34;44087.75;;;-144.43;100.00
37486;BME280;23341;50.296;18.960;2023-02-16T22:31:41;44089.75;;;-144.43;100.00
37486;BME280;23341;50.296;18.960;2023-02-16T22:36:47;44063.81;;;-144.43;100.00
37486;BME280;23341;50.296;18.960;2023-02-16T22:41:51;44077.78;;;-144.43;100.00
37486;BME280;23341;50.296;18.960;2023-02-16T22:46:55;44109.72;;;-144.43;100.00
37486;BME280;23341;50.296;18.960;2023-02-16T22:52:01;44113.69;;;-144.43;100.00
37486;BME280;23341;50.296;18.960;2023-02-16T22:57:05;44117.69;;;-144.43;100.00
37486;BME280;23341;50.296;18.960;2023-02-16T23:02:09;44133.66;;;-144.43;100.00
37486;BME280;23341;50.296;18.960;2023-02-16T23:07:14;44081.75;;;-144.43;100.00
37486;BME280;23341;50.296;18.960;2023-02-16T23:12:17;44049.84;;;-144.43;100.00
37486;BME280;23341;50.296;18.960;2023-02-16T23:17:21;44063.81;;;-144.43;100.00
37486;BME280;23341;50.296;18.960;2023-02-16T23:22:27;43999.94;;;-144.43;100.00
37486;BME280;23341;50.296;18.960;2023-02-16T23:27:32;44011.91;;;-144.43;100.00
37486;BME280;23341;50.296;18.960;2023-02-16T23:32:35;44029.88;;;-144.43;100.00
37486;BME280;23341;50.296;18.960;2023-02-16T23:37:41;44043.84;;;-144.43;100.00
37486;BME280;23341;50.296;18.960;2023-02-16T23:42:44;44099.72;;;-144.43;100.00
37486;BME280;23341;50.296;18.960;2023-02-16T23:47:48;44109.72;;;-144.43;100.00
37486;BME280;23341;50.296;18.960;2023-02-16T23:52:53;44103.72;;;-144.43;100.00
37486;BME280;23341;50.296;18.960;2023-02-16T23:57:57;44099.72;;;-144.43;100.00
